createdAt,value
2018-04-16T00:00:00.436Z,6.80
2018-04-16T00:02:06.567Z,6.63
2018-04-16T00:04:10.785Z,6.83
2018-04-16T00:06:14.978Z,6.50
2018-04-16T00:08:19.172Z,7.07
2018-04-16T00:10:23.418Z,6.90
2018-04-16T00:12:27.605Z,6.63
2018-04-16T00:14:31.799Z,6.90
2018-04-16T00:16:36.061Z,6.60
2018-04-16T00:18:40.260Z,6.10
2018-04-16T00:20:44.449Z,6.53
2018-04-16T00:22:48.620Z,6.43
2018-04-16T00:24:52.786Z,6.63
2018-04-16T00:26:57.783Z,6.73
2018-04-16T00:29:01.954Z,5.93
2018-04-16T00:31:06.125Z,6.57
2018-04-16T00:33:16.196Z,6.67
2018-04-16T00:35:25.991Z,6.70
2018-04-16T00:37:35.854Z,6.40
2018-04-16T00:39:45.880Z,6.87
2018-04-16T00:41:55.940Z,6.40
2018-04-16T00:44:05.985Z,6.83
2018-04-16T00:46:15.960Z,7.40
2018-04-16T00:48:25.910Z,7.27
2018-04-16T00:50:35.772Z,6.80
2018-04-16T00:52:45.601Z,7.07
2018-04-16T00:54:56.632Z,7.10
2018-04-16T00:57:06.457Z,7.70
2018-04-16T00:59:16.457Z,7.10
2018-04-16T01:01:26.371Z,7.00
2018-04-16T01:03:36.210Z,7.20
2018-04-16T01:05:46.223Z,6.93
2018-04-16T01:07:56.126Z,6.90
2018-04-16T01:10:06.029Z,7.43
2018-04-16T01:12:15.805Z,6.50
2018-04-16T01:14:27.125Z,6.77
2018-04-16T01:16:37.102Z,6.30
2018-04-16T01:18:46.982Z,7.10
2018-04-16T01:20:56.823Z,7.03
2018-04-16T01:23:06.955Z,7.10
2018-04-16T01:25:18.056Z,7.00
2018-04-16T01:27:28.065Z,7.23
2018-04-16T01:29:40.316Z,6.87
2018-04-16T01:31:50.158Z,7.13
2018-04-16T01:34:00.203Z,7.37
2018-04-16T01:36:10.245Z,7.47
2018-04-16T01:38:20.242Z,6.97
2018-04-16T01:40:30.097Z,6.53
2018-04-16T01:42:39.969Z,7.00
2018-04-16T01:44:51.084Z,6.90
2018-04-16T01:47:01.110Z,6.30
2018-04-16T01:49:11.076Z,7.73
2018-04-16T01:51:20.957Z,7.17
2018-04-16T01:53:31.030Z,6.70
2018-04-16T01:55:41.150Z,7.03
2018-04-16T01:57:51.026Z,8.07
2018-04-16T02:00:01.036Z,7.27
2018-04-16T02:02:11.078Z,7.30
2018-04-16T02:04:20.944Z,7.40
2018-04-16T02:06:30.853Z,7.60
2018-04-16T02:08:40.685Z,7.57
2018-04-16T02:10:50.692Z,6.90
2018-04-16T02:13:00.597Z,7.40
2018-04-16T02:15:11.756Z,7.87
2018-04-16T02:17:21.689Z,7.70
2018-04-16T02:19:31.494Z,7.50
2018-04-16T02:21:41.412Z,8.00
2018-04-16T02:23:51.320Z,7.73
2018-04-16T02:26:01.199Z,7.33
2018-04-16T02:28:11.059Z,7.77
2018-04-16T02:30:21.108Z,7.60
2018-04-16T02:32:31.095Z,7.57
2018-04-16T02:34:41.176Z,7.00
2018-04-16T02:36:51.064Z,7.50
2018-04-16T02:39:00.942Z,7.70
2018-04-16T02:41:20.987Z,8.17
2018-04-16T02:43:30.765Z,8.50
2018-04-16T02:45:42.058Z,7.27
2018-04-16T02:47:51.937Z,8.13
2018-04-16T02:50:01.876Z,8.60
2018-04-16T02:52:11.901Z,7.83
2018-04-16T02:54:21.929Z,7.90
2018-04-16T02:56:31.887Z,8.20
2018-04-16T02:58:41.928Z,8.23
2018-04-16T03:00:51.739Z,9.53
2018-04-16T03:03:01.552Z,8.87
2018-04-16T03:05:12.228Z,8.33
2018-04-16T03:07:22.061Z,8.97
2018-04-16T03:09:32.498Z,8.07
2018-04-16T03:11:43.424Z,9.03
2018-04-16T03:14:06.439Z,9.40
2018-04-16T03:16:16.553Z,9.50
2018-04-16T03:18:26.548Z,8.00
2018-04-16T03:20:36.546Z,9.43
2018-04-16T03:22:47.579Z,8.57
2018-04-16T03:24:57.463Z,8.63
2018-04-16T03:27:07.280Z,10.10
2018-04-16T03:29:17.214Z,8.30
2018-04-16T03:31:39.675Z,9.50
2018-04-16T03:33:49.655Z,9.80
2018-04-16T03:35:59.611Z,9.43
2018-04-16T03:38:09.518Z,8.70
2018-04-16T03:40:19.509Z,8.97
2018-04-16T03:42:29.346Z,9.93
2018-04-16T03:44:39.396Z,9.30
2018-04-16T03:46:49.164Z,9.30
2018-04-16T03:49:01.615Z,9.07
2018-04-16T03:51:22.681Z,9.93
2018-04-16T03:53:27.673Z,9.83
2018-04-16T03:55:46.714Z,10.07
2018-04-16T03:57:50.825Z,10.70
2018-04-16T03:59:54.964Z,9.37
2018-04-16T04:01:59.106Z,10.77
2018-04-16T04:04:03.240Z,10.67
2018-04-16T04:06:07.380Z,10.10
2018-04-16T04:08:11.487Z,9.27
2018-04-16T04:10:15.629Z,9.83
2018-04-16T04:12:19.850Z,10.50
2018-04-16T04:14:26.194Z,10.10
2018-04-16T04:16:30.364Z,10.40
2018-04-16T04:18:39.685Z,11.53
2018-04-16T04:20:43.822Z,11.03
2018-04-16T04:22:55.900Z,10.27
2018-04-16T04:25:07.336Z,10.47
2018-04-16T04:27:17.214Z,10.60
2018-04-16T04:29:29.511Z,11.50
2018-04-16T04:31:33.635Z,10.57
2018-04-16T04:33:37.798Z,11.43
2018-04-16T04:35:41.928Z,10.90
2018-04-16T04:37:46.064Z,11.53
2018-04-16T04:39:50.243Z,11.57
2018-04-16T04:41:54.363Z,11.90
2018-04-16T04:43:58.494Z,10.83
2018-04-16T04:46:04.267Z,12.27
2018-04-16T04:48:08.551Z,11.67
2018-04-16T04:50:12.714Z,11.90
2018-04-16T04:52:18.432Z,11.00
2018-04-16T04:54:22.559Z,10.23
2018-04-16T04:56:26.716Z,11.60
2018-04-16T04:58:30.865Z,11.77
2018-04-16T05:00:35.011Z,11.83
2018-04-16T05:02:44.177Z,11.53
2018-04-16T05:04:48.295Z,11.03
2018-04-16T05:06:52.412Z,11.13
2018-04-16T05:08:58.718Z,11.87
2018-04-16T05:11:05.107Z,11.30
2018-04-16T05:13:09.223Z,13.33
2018-04-16T05:15:13.382Z,12.67
2018-04-16T05:17:17.517Z,13.23
2018-04-16T05:19:21.619Z,12.30
2018-04-16T05:21:25.751Z,12.07
2018-04-16T05:23:29.830Z,11.37
2018-04-16T05:25:36.017Z,11.37
2018-04-16T05:27:40.233Z,12.17
2018-04-16T05:29:46.492Z,12.20
2018-04-16T05:31:52.564Z,13.20
2018-04-16T05:33:56.659Z,11.87
2018-04-16T05:36:00.794Z,13.50
2018-04-16T05:38:04.908Z,12.73
2018-04-16T05:40:13.214Z,12.17
2018-04-16T05:42:23.799Z,12.47
2018-04-16T05:44:29.949Z,12.87
2018-04-16T05:46:34.154Z,13.90
2018-04-16T05:48:38.255Z,13.40
2018-04-16T05:50:46.539Z,12.63
2018-04-16T05:52:57.223Z,13.03
2018-04-16T05:55:01.337Z,11.70
2018-04-16T05:57:05.538Z,11.53
2018-04-16T05:59:09.816Z,12.07
2018-04-16T06:01:13.933Z,10.70
2018-04-16T06:03:18.143Z,10.30
2018-04-16T06:05:22.256Z,10.97
2018-04-16T06:07:30.426Z,10.63
2018-04-16T06:09:34.474Z,9.93
2018-04-16T06:11:38.577Z,9.83
2018-04-16T06:13:42.650Z,10.10
2018-04-16T06:15:49.195Z,10.80
2018-04-16T06:17:53.277Z,9.37
2018-04-16T06:20:01.511Z,10.10
2018-04-16T06:22:05.663Z,9.30
2018-04-16T06:24:12.052Z,9.60
2018-04-16T06:26:16.126Z,9.70
2018-04-16T06:28:20.182Z,10.40
2018-04-16T06:30:26.127Z,10.57
2018-04-16T06:32:35.878Z,9.97
2018-04-16T06:34:44.280Z,10.03
2018-04-16T06:36:48.400Z,9.10
2018-04-16T06:38:52.444Z,8.67
2018-04-16T06:40:58.488Z,8.57
2018-04-16T06:43:13.546Z,7.83
2018-04-16T06:45:21.760Z,7.70
2018-04-16T06:47:29.992Z,8.00
2018-04-16T06:49:34.012Z,7.50
2018-04-16T06:51:44.767Z,7.77
2018-04-16T06:53:48.779Z,7.00
2018-04-16T06:55:57.278Z,6.70
2018-04-16T06:58:05.527Z,7.20
2018-04-16T07:00:11.844Z,7.10
2018-04-16T07:02:20.395Z,8.23
2018-04-16T07:04:24.443Z,7.77
2018-04-16T07:06:35.129Z,8.20
2018-04-16T07:08:45.663Z,7.67
2018-04-16T07:10:52.004Z,8.47
2018-04-16T07:12:58.326Z,7.90
2018-04-16T07:15:04.710Z,8.10
2018-04-16T07:17:08.753Z,8.40
2018-04-16T07:19:17.080Z,7.80
2018-04-16T07:21:23.400Z,9.00
2018-04-16T07:23:29.800Z,8.47
2018-04-16T07:25:33.931Z,8.80
2018-04-16T07:27:42.182Z,8.90
2018-04-16T07:29:53.007Z,8.77
2018-04-16T07:31:57.075Z,8.50
2018-04-16T07:34:05.353Z,8.87
2018-04-16T07:36:15.708Z,9.13
2018-04-16T07:38:24.256Z,9.13
2018-04-16T07:40:28.436Z,9.23
2018-04-16T07:42:41.118Z,11.50
2018-04-16T07:44:47.421Z,9.43
2018-04-16T07:46:51.589Z,11.10
2018-04-16T07:49:02.397Z,11.13
2018-04-16T07:51:08.636Z,11.70
2018-04-16T07:53:14.646Z,10.37
2018-04-16T07:55:25.177Z,10.37
2018-04-16T07:57:42.483Z,12.33
2018-04-16T08:00:01.645Z,13.80
2018-04-16T08:02:10.427Z,13.30
2018-04-16T08:04:14.473Z,12.10
2018-04-16T08:06:27.629Z,11.80
2018-04-16T08:08:36.333Z,11.17
2018-04-16T08:10:49.449Z,10.90
2018-04-16T08:12:53.580Z,10.83
2018-04-16T08:15:06.551Z,11.13
2018-04-16T08:17:17.340Z,10.87
2018-04-16T08:19:27.934Z,10.27
2018-04-16T08:21:36.294Z,10.63
2018-04-16T08:23:44.626Z,9.63
2018-04-16T08:25:52.563Z,10.30
2018-04-16T08:27:58.801Z,9.17
2018-04-16T08:30:02.901Z,9.50
2018-04-16T08:32:09.221Z,9.07
2018-04-16T08:34:17.855Z,8.50
2018-04-16T08:36:26.191Z,8.47
2018-04-16T08:38:41.007Z,7.97
2018-04-16T08:40:47.029Z,9.30
2018-04-16T08:42:53.355Z,7.60
2018-04-16T08:45:01.977Z,8.47
2018-04-16T08:47:08.327Z,9.30
2018-04-16T08:49:14.603Z,9.37
2018-04-16T08:51:20.908Z,49.87
2018-04-16T08:53:26.952Z,12.77
2018-04-16T08:55:37.941Z,20.23
2018-04-16T08:57:46.586Z,37.50
2018-04-16T08:59:50.636Z,23.40
2018-04-16T09:01:59.687Z,6.70
2018-04-16T09:04:06.046Z,7.10
2018-04-16T09:06:10.078Z,7.00
2018-04-16T09:08:14.115Z,6.60
2018-04-16T09:10:18.183Z,5.50
2018-04-16T09:12:24.461Z,7.93
2018-04-16T09:14:30.600Z,6.97
2018-04-16T09:16:43.342Z,9.60
2018-04-16T09:18:49.655Z,8.60
2018-04-16T09:20:53.755Z,9.77
2018-04-16T09:23:04.464Z,9.93
2018-04-16T09:25:08.503Z,8.20
2018-04-16T09:27:12.576Z,8.07
2018-04-16T09:29:16.593Z,7.30
2018-04-16T09:31:20.613Z,8.63
2018-04-16T09:33:27.147Z,7.50
2018-04-16T09:35:33.429Z,7.43
2018-04-16T09:37:37.483Z,9.30
2018-04-16T09:39:41.493Z,9.20
2018-04-16T09:41:45.513Z,18.30
2018-04-16T09:43:49.554Z,27.83
2018-04-16T09:45:53.802Z,11.60
2018-04-16T09:47:57.837Z,9.87
2018-04-16T09:50:01.868Z,8.73
2018-04-16T09:52:05.934Z,9.93
2018-04-16T09:54:09.933Z,6.90
2018-04-16T09:56:14.165Z,8.33
2018-04-16T09:58:18.231Z,7.27
2018-04-16T10:00:28.445Z,6.10
2018-04-16T10:02:36.974Z,6.07
2018-04-16T10:04:41.001Z,5.43
2018-04-16T10:06:45.028Z,6.00
2018-04-16T10:08:49.259Z,5.40
2018-04-16T10:10:59.826Z,5.50
2018-04-16T10:13:05.859Z,6.00
2018-04-16T10:15:09.932Z,5.50
2018-04-16T10:17:16.188Z,5.17
2018-04-16T10:19:28.968Z,5.53
2018-04-16T10:21:35.332Z,5.53
2018-04-16T10:23:48.333Z,5.73
2018-04-16T10:25:52.350Z,6.47
2018-04-16T10:27:56.466Z,6.70
2018-04-16T10:30:07.403Z,6.40
2018-04-16T10:32:11.468Z,5.80
2018-04-16T10:34:19.928Z,3.77
2018-04-16T10:36:23.966Z,3.77
2018-04-16T10:38:28.076Z,3.20
2018-04-16T10:40:32.235Z,3.42
2018-04-16T10:42:42.791Z,3.22
2018-04-16T10:44:51.309Z,3.20
2018-04-16T10:46:57.680Z,3.37
2018-04-16T10:49:03.922Z,3.75
2018-04-16T10:51:10.246Z,3.92
2018-04-16T10:53:14.427Z,4.45
2018-04-16T10:55:25.150Z,3.85
2018-04-16T10:57:29.299Z,4.07
2018-04-16T10:59:37.588Z,3.80
2018-04-16T11:01:45.862Z,4.40
2018-04-16T11:04:00.771Z,4.17
2018-04-16T11:06:04.827Z,4.30
2018-04-16T11:08:13.436Z,4.00
2018-04-16T11:10:24.280Z,4.43
2018-04-16T11:12:39.353Z,4.90
2018-04-16T11:14:45.386Z,4.30
2018-04-16T11:16:54.066Z,3.70
2018-04-16T11:18:58.157Z,3.80
2018-04-16T11:21:04.483Z,3.90
2018-04-16T11:23:10.943Z,4.10
2018-04-16T11:25:14.956Z,3.93
2018-04-16T11:27:19.000Z,4.23
2018-04-16T11:29:25.304Z,9.07
2018-04-16T11:31:31.655Z,5.10
2018-04-16T11:33:42.512Z,4.17
2018-04-16T11:35:55.559Z,3.80
2018-04-16T11:38:03.942Z,4.10
2018-04-16T11:40:12.493Z,4.37
2018-04-16T11:42:16.558Z,3.60
2018-04-16T11:44:20.692Z,4.10
2018-04-16T11:46:24.704Z,3.23
2018-04-16T11:48:28.736Z,3.13
2018-04-16T11:50:35.005Z,3.57
2018-04-16T11:52:39.021Z,3.63
2018-04-16T11:54:45.286Z,3.40
2018-04-16T11:56:49.408Z,3.10
2018-04-16T11:58:57.967Z,3.10
2018-04-16T12:01:10.951Z,3.30
2018-04-16T12:03:19.545Z,3.10
2018-04-16T12:05:23.848Z,2.70
2018-04-16T12:07:27.894Z,3.20
2018-04-16T12:09:31.986Z,3.13
2018-04-16T12:11:38.258Z,2.80
2018-04-16T12:13:42.406Z,3.20
2018-04-16T12:15:50.970Z,2.50
2018-04-16T12:17:57.363Z,2.50
2018-04-16T12:20:01.436Z,2.93
2018-04-16T12:22:05.492Z,2.87
2018-04-16T12:24:14.058Z,3.17
2018-04-16T12:26:18.130Z,2.90
2018-04-16T12:28:24.407Z,3.00
2018-04-16T12:30:28.434Z,2.97
2018-04-16T12:32:37.055Z,3.27
2018-04-16T12:34:41.123Z,3.23
2018-04-16T12:36:45.153Z,3.67
2018-04-16T12:38:49.225Z,3.70
2018-04-16T12:40:53.257Z,3.30
2018-04-16T12:42:57.258Z,3.40
2018-04-16T12:45:01.289Z,3.20
2018-04-16T12:47:05.314Z,3.63
2018-04-16T12:49:09.328Z,4.43
2018-04-16T12:51:14.443Z,4.00
2018-04-16T12:53:18.477Z,3.70
2018-04-16T12:55:22.552Z,3.63
2018-04-16T12:57:26.554Z,3.90
2018-04-16T12:59:31.053Z,3.87
2018-04-16T13:01:35.061Z,4.30
2018-04-16T13:03:39.101Z,3.57
2018-04-16T13:05:45.441Z,4.13
2018-04-16T13:07:49.488Z,4.47
2018-04-16T13:09:53.504Z,3.80
2018-04-16T13:11:57.592Z,4.77
2018-04-16T13:14:01.651Z,4.73
2018-04-16T13:16:05.741Z,4.40
2018-04-16T13:18:09.851Z,4.50
2018-04-16T13:20:13.944Z,4.47
2018-04-16T13:22:18.069Z,4.50
2018-04-16T13:24:22.102Z,4.07
2018-04-16T13:26:26.108Z,5.20
2018-04-16T13:28:30.145Z,4.30
2018-04-16T13:30:34.178Z,4.80
2018-04-16T13:32:38.190Z,4.80
2018-04-16T13:34:42.220Z,4.40
2018-04-16T13:36:46.363Z,4.97
2018-04-16T13:38:50.542Z,5.00
2018-04-16T13:40:54.608Z,5.40
2018-04-16T13:42:58.725Z,5.10
2018-04-16T13:45:02.753Z,5.13
2018-04-16T13:47:06.825Z,5.87
2018-04-16T13:49:10.843Z,4.70
2018-04-16T13:51:14.857Z,4.17
2018-04-16T13:53:18.901Z,4.70
2018-04-16T13:55:23.120Z,4.10
2018-04-16T13:57:27.189Z,4.60
2018-04-16T13:59:31.380Z,5.17
2018-04-16T14:01:35.427Z,4.03
2018-04-16T14:03:39.523Z,4.90
2018-04-16T14:05:43.594Z,4.13
2018-04-16T14:07:47.648Z,3.80
2018-04-16T14:09:51.683Z,4.70
2018-04-16T14:11:55.746Z,4.00
2018-04-16T14:13:59.827Z,4.20
2018-04-16T14:16:04.892Z,4.60
2018-04-16T14:18:08.913Z,4.60
2018-04-16T14:20:12.972Z,5.40
2018-04-16T14:22:17.002Z,5.37
2018-04-16T14:24:21.109Z,4.17
2018-04-16T14:26:25.174Z,5.60
2018-04-16T14:28:29.348Z,4.00
2018-04-16T14:30:33.458Z,4.97
2018-04-16T14:32:37.500Z,4.07
2018-04-16T14:34:41.519Z,3.30
2018-04-16T14:36:45.656Z,4.43
2018-04-16T14:38:49.664Z,3.40
2018-04-16T14:40:54.028Z,3.57
2018-04-16T14:42:58.208Z,3.80
2018-04-16T14:45:02.243Z,3.20
2018-04-16T14:47:06.300Z,3.37
2018-04-16T14:49:12.735Z,3.57
2018-04-16T14:51:16.807Z,2.60
2018-04-16T14:53:23.286Z,2.90
2018-04-16T14:55:27.698Z,3.50
2018-04-16T14:57:31.746Z,2.80
2018-04-16T14:59:35.875Z,3.20
2018-04-16T15:01:39.918Z,3.10
2018-04-16T15:03:43.976Z,3.57
2018-04-16T15:05:50.587Z,2.73
2018-04-16T15:07:54.652Z,2.87
2018-04-16T15:10:01.038Z,3.23
2018-04-16T15:12:09.057Z,2.83
2018-04-16T15:14:13.100Z,2.90
2018-04-16T15:16:19.181Z,2.77
2018-04-16T15:18:23.217Z,2.73
2018-04-16T15:20:31.705Z,3.20
2018-04-16T15:22:38.055Z,2.87
2018-04-16T15:24:42.210Z,3.40
2018-04-16T15:26:52.636Z,3.37
2018-04-16T15:28:58.918Z,2.80
2018-04-16T15:31:09.778Z,2.70
2018-04-16T15:33:16.157Z,3.00
2018-04-16T15:35:22.399Z,3.43
2018-04-16T15:37:32.916Z,3.20
2018-04-16T15:39:36.981Z,3.00
2018-04-16T15:41:49.559Z,3.57
2018-04-16T15:43:58.211Z,2.43
2018-04-16T15:46:04.427Z,3.43
2018-04-16T15:48:17.314Z,3.30
2018-04-16T15:50:23.608Z,3.10
2018-04-16T15:52:27.673Z,3.30
2018-04-16T15:54:31.711Z,3.00
2018-04-16T15:56:37.720Z,3.23
2018-04-16T15:58:50.539Z,3.17
2018-04-16T16:00:59.203Z,2.90
2018-04-16T16:03:07.436Z,2.90
2018-04-16T16:05:16.065Z,3.20
2018-04-16T16:07:22.297Z,3.47
2018-04-16T16:09:33.185Z,2.83
2018-04-16T16:11:41.451Z,2.80
2018-04-16T16:13:52.296Z,2.47
2018-04-16T16:16:11.487Z,2.40
2018-04-16T16:18:20.093Z,3.10
2018-04-16T16:20:26.437Z,2.30
2018-04-16T16:22:30.535Z,3.50
2018-04-16T16:24:34.616Z,2.60
2018-04-16T16:26:41.077Z,3.27
2018-04-16T16:28:45.134Z,3.00
2018-04-16T16:30:55.943Z,2.90
2018-04-16T16:33:01.897Z,2.90
2018-04-16T16:35:12.565Z,2.70
2018-04-16T16:37:20.576Z,3.27
2018-04-16T16:39:26.598Z,2.70
2018-04-16T16:41:31.238Z,3.30
2018-04-16T16:43:42.104Z,3.47
2018-04-16T16:45:48.462Z,3.47
2018-04-16T16:47:54.856Z,3.33
2018-04-16T16:50:01.180Z,3.50
2018-04-16T16:52:09.472Z,2.87
2018-04-16T16:54:13.523Z,2.70
2018-04-16T16:56:24.299Z,2.87
2018-04-16T16:58:37.392Z,3.07
2018-04-16T17:00:43.716Z,3.47
2018-04-16T17:02:52.341Z,3.10
2018-04-16T17:04:58.579Z,2.90
2018-04-16T17:07:04.900Z,3.40
2018-04-16T17:09:13.332Z,3.00
2018-04-16T17:11:19.789Z,2.63
2018-04-16T17:13:30.279Z,3.27
2018-04-16T17:15:34.790Z,3.73
2018-04-16T17:17:43.354Z,2.60
2018-04-16T17:19:49.671Z,2.90
2018-04-16T17:22:05.014Z,3.07
2018-04-16T17:24:13.482Z,2.93
2018-04-16T17:26:20.134Z,3.20
2018-04-16T17:28:24.275Z,2.87
2018-04-16T17:30:39.234Z,2.83
2018-04-16T17:32:47.467Z,3.43
2018-04-16T17:34:51.767Z,3.33
2018-04-16T17:36:55.966Z,3.20
2018-04-16T17:39:00.263Z,2.70
2018-04-16T17:41:08.804Z,2.60
2018-04-16T17:43:17.210Z,2.93
2018-04-16T17:45:23.520Z,2.90
2018-04-16T17:47:34.256Z,2.83
2018-04-16T17:49:40.230Z,3.13
2018-04-16T17:51:55.508Z,3.60
2018-04-16T17:54:08.732Z,3.10
2018-04-16T17:56:14.033Z,3.70
2018-04-16T17:58:20.423Z,3.90
2018-04-16T18:00:26.664Z,3.67
2018-04-16T18:02:35.226Z,3.80
2018-04-16T18:04:39.348Z,3.70
2018-04-16T18:06:45.243Z,3.50
2018-04-16T18:08:49.340Z,3.77
2018-04-16T18:10:53.464Z,3.50
2018-04-16T18:13:08.498Z,3.87
2018-04-16T18:15:19.299Z,4.30
2018-04-16T18:17:23.369Z,3.73
2018-04-16T18:19:29.455Z,4.40
2018-04-16T18:21:35.419Z,4.10
2018-04-16T18:23:44.194Z,3.73
2018-04-16T18:25:52.849Z,4.43
2018-04-16T18:28:01.589Z,4.10
2018-04-16T18:30:07.587Z,4.70
2018-04-16T18:32:18.200Z,4.83
2018-04-16T18:34:31.169Z,3.77
2018-04-16T18:36:39.804Z,4.53
2018-04-16T18:38:46.307Z,3.93
2018-04-16T18:40:54.763Z,4.90
2018-04-16T18:43:09.583Z,5.67
2018-04-16T18:45:13.629Z,4.33
2018-04-16T18:47:17.767Z,4.97
2018-04-16T18:49:26.231Z,4.13
2018-04-16T18:51:32.302Z,4.33
2018-04-16T18:53:36.450Z,5.10
2018-04-16T18:55:42.756Z,4.63
2018-04-16T18:57:49.803Z,4.43
2018-04-16T19:00:04.589Z,4.83
2018-04-16T19:02:10.581Z,4.90
2018-04-16T19:04:14.728Z,5.53
2018-04-16T19:06:21.081Z,5.03
2018-04-16T19:08:25.235Z,4.37
2018-04-16T19:10:31.267Z,5.17
2018-04-16T19:12:41.590Z,4.60
2018-04-16T19:14:49.919Z,5.00
2018-04-16T19:17:13.846Z,5.20
2018-04-16T19:19:22.371Z,5.90
2018-04-16T19:21:36.677Z,5.53
2018-04-16T19:23:42.613Z,5.13
2018-04-16T19:25:51.052Z,5.97
2018-04-16T19:28:01.085Z,5.50
2018-04-16T19:30:05.148Z,6.07
2018-04-16T19:32:11.542Z,5.30
2018-04-16T19:34:23.623Z,6.17
2018-04-16T19:36:31.591Z,5.37
2018-04-16T19:38:42.287Z,5.67
2018-04-16T19:40:48.561Z,6.07
2018-04-16T19:42:59.179Z,6.43
2018-04-16T19:45:05.491Z,7.43
2018-04-16T19:47:11.810Z,8.27
2018-04-16T19:49:27.868Z,7.83
2018-04-16T19:51:40.891Z,8.77
2018-04-16T19:53:45.096Z,7.70
2018-04-16T19:55:55.023Z,7.87
2018-04-16T19:58:07.131Z,7.27
2018-04-16T20:00:11.202Z,8.77
2018-04-16T20:02:23.256Z,7.23
2018-04-16T20:04:27.320Z,7.47
2018-04-16T20:06:33.367Z,8.03
2018-04-16T20:08:41.944Z,8.27
2018-04-16T20:10:50.381Z,7.80
2018-04-16T20:12:59.007Z,9.30
2018-04-16T20:15:07.546Z,7.97
2018-04-16T20:17:13.742Z,8.43
2018-04-16T20:19:19.759Z,9.07
2018-04-16T20:21:30.644Z,9.70
2018-04-16T20:23:34.949Z,9.60
2018-04-16T20:25:48.023Z,9.00
2018-04-16T20:27:52.055Z,9.13
2018-04-16T20:29:56.124Z,9.97
2018-04-16T20:32:04.759Z,9.70
2018-04-16T20:34:12.967Z,9.47
2018-04-16T20:36:32.255Z,11.00
2018-04-16T20:38:42.952Z,10.43
2018-04-16T20:40:49.303Z,11.63
2018-04-16T20:42:59.844Z,9.80
2018-04-16T20:45:03.994Z,9.20
2018-04-16T20:47:10.273Z,9.40
2018-04-16T20:49:19.006Z,10.70
2018-04-16T20:51:29.890Z,10.80
2018-04-16T20:53:38.482Z,11.07
2018-04-16T20:55:44.512Z,9.93
2018-04-16T20:57:50.846Z,9.17
2018-04-16T21:00:01.680Z,11.23
2018-04-16T21:02:10.039Z,10.60
2018-04-16T21:04:21.068Z,10.20
2018-04-16T21:06:31.703Z,10.50
2018-04-16T21:08:38.129Z,9.03
2018-04-16T21:10:44.453Z,10.07
2018-04-16T21:12:50.763Z,10.63
2018-04-16T21:14:54.814Z,10.50
2018-04-16T21:16:58.839Z,11.40
2018-04-16T21:19:02.914Z,10.90
2018-04-16T21:21:09.277Z,10.23
2018-04-16T21:23:22.339Z,10.63
2018-04-16T21:25:28.551Z,10.73
2018-04-16T21:27:39.408Z,11.87
2018-04-16T21:29:49.698Z,11.70
2018-04-16T21:31:53.807Z,10.87
2018-04-16T21:34:02.108Z,12.33
2018-04-16T21:36:08.459Z,12.37
2018-04-16T21:38:17.035Z,12.67
2018-04-16T21:40:27.775Z,12.60
2018-04-16T21:42:40.537Z,11.17
2018-04-16T21:44:46.855Z,10.60
2018-04-16T21:46:50.960Z,12.17
2018-04-16T21:48:55.091Z,11.47
2018-04-16T21:50:59.163Z,12.70
2018-04-16T21:53:05.482Z,12.30
2018-04-16T21:55:16.496Z,11.80
2018-04-16T21:57:20.545Z,11.43
2018-04-16T21:59:28.839Z,12.53
2018-04-16T22:01:37.341Z,11.40
2018-04-16T22:03:45.718Z,12.33
2018-04-16T22:06:01.266Z,11.43
2018-04-16T22:08:05.321Z,11.10
2018-04-16T22:10:09.341Z,10.70
2018-04-16T22:12:13.372Z,10.67
2018-04-16T22:14:25.908Z,10.80
2018-04-16T22:16:31.716Z,11.10
2018-04-16T22:18:37.975Z,11.33
2018-04-16T22:20:42.000Z,12.60
2018-04-16T22:22:50.339Z,11.83
2018-04-16T22:25:00.701Z,12.27
2018-04-16T22:27:07.066Z,12.00
2018-04-16T22:29:17.786Z,11.27
2018-04-16T22:31:26.058Z,11.60
2018-04-16T22:33:30.122Z,12.23
2018-04-16T22:35:36.555Z,12.87
2018-04-16T22:37:42.881Z,10.83
2018-04-16T22:39:49.171Z,11.07
2018-04-16T22:41:53.200Z,11.50
2018-04-16T22:43:59.417Z,11.90
2018-04-16T22:46:09.773Z,10.50
2018-04-16T22:48:16.055Z,10.60
2018-04-16T22:50:25.647Z,10.80
2018-04-16T22:52:29.668Z,10.77
2018-04-16T22:54:35.811Z,10.80
2018-04-16T22:56:46.099Z,10.13
2018-04-16T22:58:50.190Z,11.40
2018-04-16T23:00:58.831Z,10.50
2018-04-16T23:03:09.297Z,11.10
2018-04-16T23:05:24.116Z,10.60
2018-04-16T23:07:32.455Z,11.87
2018-04-16T23:09:36.699Z,9.67
2018-04-16T23:11:43.033Z,10.10
2018-04-16T23:13:53.801Z,10.13
2018-04-16T23:15:59.931Z,9.40
2018-04-16T23:18:06.308Z,10.80
2018-04-16T23:20:12.544Z,11.70
2018-04-16T23:22:18.571Z,9.87
2018-04-16T23:24:24.948Z,9.90
2018-04-16T23:26:33.524Z,10.60
2018-04-16T23:28:37.562Z,11.03
2018-04-16T23:30:48.020Z,10.00
2018-04-16T23:32:54.381Z,10.47
2018-04-16T23:35:00.680Z,10.10
2018-04-16T23:37:13.579Z,10.87
2018-04-16T23:39:22.109Z,11.30
2018-04-16T23:41:35.058Z,10.20
2018-04-16T23:43:45.710Z,10.90
2018-04-16T23:45:56.285Z,10.80
2018-04-16T23:48:02.332Z,10.90
2018-04-16T23:50:08.379Z,10.83
2018-04-16T23:52:23.267Z,10.40
2018-04-16T23:54:29.572Z,10.00
2018-04-16T23:56:35.661Z,10.60
2018-04-16T23:58:42.067Z,10.00
